Calverton, Maryland
Current Conditions -  °F | °C
As of 3:05 AM on Tuesday 21 Oct 2014 (Local Time) from KCGS Reporting Station
Broken Clouds Broken Clouds  
Wind Chill: 52°   Ceiling: 12000
Heat Index: 52°   Visibility: 10mi
Dew Point: 52°   Wind: 0mph
Humidity: 100%   Direction: NA
Pressure: 29.88"   Gusts: NA
Location:  39.0435°N, 76.8995°W
Report Text: KCGS 210705Z AUTO 00000KT 10SM SCT075 BKN120 11/11 A2988 RMK AO1
Loading
Personal Weather Stations






























Interactive Weather Map
Tropical Storm Tracking
New forecast layout! Learn more

10-Day Weather Forecast

Advertisements
Track Severe Weather on mobile